Terminal Aerodrome Forecast
Issued by NWS Mt. Holly, NJ

Home | Current Version | Previous Version | Text Only | Print | Product List | Glossary On
Versions: 1 2 3 4 5 6 7 8 9 10 11 12 13 14 15 16
000
FTUS41 KPHI 250522
TAFACY
TAF
KACY 250522Z 2506/2606 22005KT P6SM SCT070 OVC250 WS020/24045KT
     FM251100 23006KT P6SM BKN100
     FM251500 23008KT P6SM OVC050
     FM252300 05007KT 6SM BR OVC020
      TEMPO 2523/2603 3SM -RA BR OVC010
     FM260300 06010KT 3SM BR OVC010=

USA.gov is the U.S. government's official web portal to all federal, state and local government web resources and services.